Flugplatz Hirzenhain (EDFI)

Hier findest Du alle Informationen zum Flugplatz Hirzenhain (EDFI).

Informationen für Piloten zum Flugplatz Hirzenhain

Hier findest Du alle relevanten Informationen, die Du als Pilot benötigst, um Hirzenhain anzufliegen.

Flugplatz: Hirzenhain ICAO-Code: EDFI
Frequenz Turm: 118,325 Mhz GAFOR Gebiet: 39
Frequenz Ground: 118,325 Mhz Mogas: nein
Platzrunde: S 2800 ft Landegebühr: -
Platzhöhe: - Sunrise: 03:21 Uhr UTC
Pisten: 11/29 - 650 m x 30 m, GRAS Sunset: 19:25 Uhr UTC

Mitglieder, die in Hirzenhain fliegen

Flugwetter am Flugplatz Hirzenhain

Die METAR Information stammen aus EDGS (23.65 km entfernt).

METAR Code:
2022/05/12 11:50
EDGS 121150Z 28010KT 230V340 9999 SCT040 14/04 Q1019

Temperatur: 13,6 °C Niederschlag: - Wind: 7,9 kt (max.: 20,6 kt in Böen)
Temperatur (min.): 12,2 °C Luftdruck: 1019 hPa Windrichtung: 253 °
Temperatur (max.): 14,8 °C Luftfeuchtigkeit: 67 % Bewölkung: 8/8

Flugschulen am Flugplatz Hirzenhain

Am Flugplatz Hirzenhain gibt es leider keine Flugschule.

Benachbarte Flugplätze und Flugschulen

Es gibt 17 weitere Flugplätze in einem Umkreis von 50 km um den Flugplatz Hirzenhain.

Jetzt anmelden

Passwort vergessen

Umfrage Archiv

Sendet Ihr ADS-B und/oder FLARM?

Ja
81.6 %
Nein
18.4 %
Stimmen: 147 | Diskussion
Anzeige: Roland Aircraft
Statistik Alle Mitglieder

Aktuell sind 50 Besucher online, davon 1 Mitglied und 49 Gäste.


Mitglieder online:
Chris_EDNC 

Anzeige: ULPower Aero Engines Anzeige: Pocket FMS